Ogallah, Kansas
Current Conditions -  °F | °C
As of 10:35 AM on Sunday 21 Dec 2014 (Local Time) from KHYS Reporting Station
Overcast Overcast  
Wind Chill: 34°   Ceiling: 1000
Heat Index: 41°   Visibility: 5mi
Dew Point: 34°   Wind: 13mph
Humidity: 76%   Direction: 200°SSW
Pressure: 29.82"   Gusts: NA
Location:  38.99°N, 99.73°W
Report Text: KHYS 211635Z AUTO 20011KT 5SM OVC010 05/01 A2982 RMK AO1
Loading
Personal Weather Stations






























Interactive Weather Map New forecast layout! Learn more

10-Day Weather Forecast

Advertisements
Track Severe Weather on mobile